Rhl Felicitas — A8SV2 — position and weather

sailwx.info

Track history (hours):
 
Tides and Currents Weather Stations Pressure Air Temp Water Temp Dewpoint Dewpoint Depression Visibility Wind Speed Wind Dir Waves Ship Positions

Rhl Felicitas

Last reported at 2015-Feb-17 05:20 UTC. Time now 2015-Mar-05 08:11 UTC.
Position N 01°13' E 103°41'.
Warning: this ship's position is 16 days out of date.

Length 294 m; draft 12.8 m.

Type: Ship (hazmat cat D). MMSI: 636091781.

Date/timePositionNaut miles runAvg speedWind from/ knotsBaromVisibWave heightAir tempDewpointWater temp
2015-Feb-17 05:20N 01°13' E 103°41'6 6.0
2015-Feb-17 04:24N 01°17' E 103°46'0 0.0
2015-Feb-17 03:15N 01°17' E 103°46'0 0.0
2015-Feb-17 02:30N 01°17' E 103°46'0 0.0
2015-Feb-16 22:09N 01°17' E 103°46'0 0.0
2015-Feb-16 19:12N 01°17' E 103°46'0 0.0
2015-Feb-16 18:12N 01°17' E 103°46'0 0.0
2015-Feb-16 16:09N 01°17' E 103°46'0 0.0
2015-Feb-16 15:18N 01°17' E 103°46'0 0.0
2015-Feb-16 12:12N 01°17' E 103°46'0 0.0
2015-Feb-16 11:28N 01°17' E 103°46'1 1.3
2015-Feb-16 10:26N 01°16' E 103°46'7 7.1
2015-Feb-16 09:25N 01°13' E 103°53'6 7.4
2015-Feb-16 08:33N 01°15' E 103°59'9 8.7
2015-Feb-16 07:33N 01°17' E 104°07'  
2015-Feb-10 05:06N 01°15' E 104°02'1317.2
2015-Feb-10 04:22N 01°11' E 103°50'7 9.2
2015-Feb-10 03:33N 01°17' E 103°45'0 0.3
2015-Feb-10 02:31N 01°17' E 103°46'0 0.0
2015-Feb-10 01:25N 01°17' E 103°46'0 0.0
2015-Feb-10 00:28N 01°17' E 103°46'0 0.0
2015-Feb-09 23:31N 01°17' E 103°46'0 0.0
2015-Feb-09 22:28N 01°17' E 103°46'0 0.0
2015-Feb-09 21:07N 01°17' E 103°46'0 0.0
2015-Feb-09 20:22N 01°17' E 103°46'0 0.0
2015-Feb-09 19:31N 01°17' E 103°46'0 0.0
2015-Feb-09 18:25N 01°17' E 103°46'0 0.0
2015-Feb-09 17:31N 01°17' E 103°46'0 0.0
2015-Feb-09 16:31N 01°17' E 103°46'0 0.0
2015-Feb-09 15:28N 01°17' E 103°46'0 0.0
2015-Feb-09 14:31N 01°17' E 103°46'0 0.0
2015-Feb-09 13:31N 01°17' E 103°46'0 0.0
2015-Feb-09 12:22N 01°17' E 103°46'0 0.0
2015-Feb-09 11:31N 01°17' E 103°46'0 0.0
2015-Feb-09 10:31N 01°17' E 103°46'0 0.0
2015-Feb-09 09:31N 01°17' E 103°46'0 0.0
2015-Feb-09 08:22N 01°17' E 103°46'1 1.2
2015-Feb-09 07:33N 01°17' E 103°45'6 5.6
2015-Feb-09 06:31N 01°13' E 103°41'  
Track history (hours):
 
Tides and Currents Weather Stations Pressure Air Temp Water Temp Dewpoint Dewpoint Depression Visibility Wind Speed Wind Dir Waves Ship Positions

Rhl Felicitas

Last reported at 2015-Feb-17 05:20 UTC. Time now 2015-Mar-05 08:11 UTC.
Position N 01°13' E 103°41'.
Warning: this ship's position is 16 days out of date.

Length 294 m; draft 12.8 m.

Type: Ship (hazmat cat D). MMSI: 636091781.

Date/timePositionNaut miles runAvg speedWind from/ knotsBaromVisibWave heightAir tempDewpointWater temp
2015-Feb-17 05:20N 01°13' E 103°41'6 6.0
2015-Feb-17 04:24N 01°17' E 103°46'0 0.0
2015-Feb-17 03:15N 01°17' E 103°46'0 0.0
2015-Feb-17 02:30N 01°17' E 103°46'0 0.0
2015-Feb-16 22:09N 01°17' E 103°46'0 0.0
2015-Feb-16 19:12N 01°17' E 103°46'0 0.0
2015-Feb-16 18:12N 01°17' E 103°46'0 0.0
2015-Feb-16 16:09N 01°17' E 103°46'0 0.0
2015-Feb-16 15:18N 01°17' E 103°46'0 0.0
2015-Feb-16 12:12N 01°17' E 103°46'0 0.0
2015-Feb-16 11:28N 01°17' E 103°46'1 1.3
2015-Feb-16 10:26N 01°16' E 103°46'7 7.1
2015-Feb-16 09:25N 01°13' E 103°53'6 7.4
2015-Feb-16 08:33N 01°15' E 103°59'9 8.7
2015-Feb-16 07:33N 01°17' E 104°07'  
2015-Feb-10 05:06N 01°15' E 104°02'1317.2
2015-Feb-10 04:22N 01°11' E 103°50'7 9.2
2015-Feb-10 03:33N 01°17' E 103°45'0 0.3
2015-Feb-10 02:31N 01°17' E 103°46'0 0.0
2015-Feb-10 01:25N 01°17' E 103°46'0 0.0
2015-Feb-10 00:28N 01°17' E 103°46'0 0.0
2015-Feb-09 23:31N 01°17' E 103°46'0 0.0
2015-Feb-09 22:28N 01°17' E 103°46'0 0.0
2015-Feb-09 21:07N 01°17' E 103°46'0 0.0
2015-Feb-09 20:22N 01°17' E 103°46'0 0.0
2015-Feb-09 19:31N 01°17' E 103°46'0 0.0
2015-Feb-09 18:25N 01°17' E 103°46'0 0.0
2015-Feb-09 17:31N 01°17' E 103°46'0 0.0
2015-Feb-09 16:31N 01°17' E 103°46'0 0.0
2015-Feb-09 15:28N 01°17' E 103°46'0 0.0
2015-Feb-09 14:31N 01°17' E 103°46'0 0.0
2015-Feb-09 13:31N 01°17' E 103°46'0 0.0
2015-Feb-09 12:22N 01°17' E 103°46'0 0.0
2015-Feb-09 11:31N 01°17' E 103°46'0 0.0
2015-Feb-09 10:31N 01°17' E 103°46'0 0.0
2015-Feb-09 09:31N 01°17' E 103°46'0 0.0
2015-Feb-09 08:22N 01°17' E 103°46'1 1.2
2015-Feb-09 07:33N 01°17' E 103°45'6 5.6
2015-Feb-09 06:31N 01°13' E 103°41'  

Dump ship's entire track history